Nearby METAR Reports

 

KOAK - Oakland, California, USA
Distance from station: SSW 6mi, 9km
Updated: Sat, 04-Jul-2020 9:53pm PDT
Clear
Clear
 Wind from W
Wind: W 10 mph , 17 km/h
Temperature: 64°F , 18°C
Dew Point: 52°F , 11°C
Humidity: 64%
Barometer: 30.01 inHg , 1016.3 hPa
Clouds: Clear
Visibility: 9 miles , 14 km
2020/07/05 04:53 KOAK 050453Z 28009KT 9SM CLR 18/11 A3001 RMK AO2 SLP160 T01830111
KHWD - Hayward, California, USA
Distance from station: SSE 8mi, 12km
Updated: Sat, 04-Jul-2020 8:54pm PDT
Clear
Clear
 Wind from W
Wind: W 6 mph , 9 km/h
Temperature: 68°F , 20°C
Dew Point: 54°F , 12°C
Humidity: 60%
Barometer: 29.98 inHg , 1015.2 hPa
Clouds: Clear
Visibility: 10 miles , 16 km
2020/07/05 03:54 KHWD 050354Z 27005KT 10SM CLR 20/12 A2998 RMK AO2 SLP162 T02000117
KSFO - San Francisco, California, USA
Distance from station: SW 15mi, 25km
Updated: Sat, 04-Jul-2020 8:56pm PDT
Clear
Clear
 Wind from WNW
Wind: WNW 17 mph , 28 km/h
Temperature: 63°F , 17°C
Dew Point: 46°F , 8°C
Humidity: 56%
Barometer: 29.98 inHg , 1015.2 hPa
Clouds: Clear
Visibility: 10 miles , 16 km
2020/07/05 03:56 KSFO 050356Z 30015KT 10SM CLR 17/08 A2998 RMK AO2 SLP152 T01670083 $
 
KCCR - Concord, California, USA
Distance from station: NNE 17mi, 27km
Updated: Sat, 04-Jul-2020 9:53pm PDT
Clear
Clear
 Wind from WSW
Wind: WSW 6 mph , 9 km/h
Temperature: 79°F , 26°C
Dew Point: 39°F , 4°C
Humidity: 24%
Barometer: 29.96 inHg , 1014.6 hPa
Clouds: Clear
Visibility: 10 miles , 16 km
2020/07/05 04:53 KCCR 050453Z AUTO 24005KT 10SM CLR 26/04 A2996 RMK AO2 SLP132 T02610039
KSQL - San Carlos Airpo, California, USA
Distance from station: SSW 18mi, 29km
Updated: Sat, 04-Jul-2020 9:35pm PDT
Clear
Clear
 Wind from NNW
Wind: NNW 6 mph , 9 km/h
Temperature: 68°F , 20°C
Dew Point: 45°F , 7°C
Humidity: 43%
Barometer: 30.00 inHg , 1015.9 hPa
Clouds: Clear
Visibility: 10 miles , 16 km
2020/07/05 04:35 KSQL 050435Z AUTO 33005KT 10SM CLR 20/07 A3000 RMK AO2
KLVK - Livermore, California, USA
Distance from station: ESE 20mi, 31km
Updated: Sat, 04-Jul-2020 9:53pm PDT
Clear
Clear
 Wind from NW
Wind: NW 6 mph , 9 km/h
Temperature: 73°F , 23°C
Dew Point: 52°F , 11°C
Humidity: 47%
Barometer: 29.98 inHg , 1015.2 hPa
Clouds: Clear
Visibility: 10 miles , 16 km
2020/07/05 04:53 KLVK 050453Z 31005KT 10SM CLR 23/11 A2998 RMK AO2 SLP147 T02280106
 
KPAO - Palo Alto, California, USA
Distance from station: S 21mi, 34km
Updated: Sat, 04-Jul-2020 4:00pm PDT
NOT Current
Clear
Clear
 Wind from NNW
Wind: NNW 14 mph , 22 km/h
Temperature: 81°F , 27°C
Heat Index: 81°F , 27°C
Dew Point: 55°F , 13°C
Humidity: 42%
Barometer: 29.99 inHg , 1015.6 hPa
Clouds: Clear
Visibility: 10 miles , 16 km
2020/07/04 23:00 KPAO 042300Z 34012KT 10SM SKC 27/13 A2999 RMK LAST
KHAF - Half Moon Bay, California, USA
Distance from station: SW 25mi, 41km
Updated: Sat, 04-Jul-2020 9:40pm PDT
Haze, Clear
Haze, Clear
 Wind from NNW
Wind: NNW 5 mph , 7 km/h
Temperature: 55°F , 13°C
Dew Point: 50°F , 10°C
Humidity: 82%
Barometer: 30.04 inHg , 1017.3 hPa
Summary: Haze
Clouds: Clear
Visibility: 5 miles , 8 km
2020/07/05 04:40 KHAF 050440Z AUTO 33004KT 5SM HZ CLR 13/10 A3004 RMK AO2
KNUQ - Moffett Nas/Mtn, California, USA
Distance from station: SSE 26mi, 42km
Updated: Sat, 04-Jul-2020 6:55am PDT
NOT Current
Clear
Clear
 Wind from calm
Wind: Calm
Temperature: 59°F , 15°C
Dew Point: 52°F , 11°C
Humidity: 77%
Barometer: 30.03 inHg , 1016.9 hPa
Clouds: Clear
Visibility: 10 miles , 16 km
2020/07/04 13:55 KNUQ 041355Z AUTO 00000KT 10SM CLR 15/11 A3003 RMK AO2
 
KAPC - Napa, California, USA
Distance from station: NNW 30mi, 49km
Updated: Sat, 04-Jul-2020 8:54pm PDT
Clear
Clear
 Wind from S
Wind: S 12 mph , 19 km/h
Temperature: 72°F , 22°C
Dew Point: 52°F , 11°C
Humidity: 50%
Barometer: 29.95 inHg , 1014.2 hPa
Clouds: Clear
Visibility: 10 miles , 16 km
2020/07/05 03:54 KAPC 050354Z AUTO 19010KT 10SM CLR 22/11 A2995 RMK AO2 SLP135 T02220111
KSJC - San Jose, California, USA
Distance from station: SSE 31mi, 50km
Updated: Sat, 04-Jul-2020 9:53pm PDT
Few Clouds
Few Clouds
 Wind from NW
Wind: NW 5 mph , 7 km/h
Temperature: 70°F , 21°C
Dew Point: 48°F , 9°C
Humidity: 46%
Barometer: 30.00 inHg , 1015.9 hPa
Clouds: Few Clouds
Visibility: 10 miles , 16 km
Cloud details: Few Clouds 600 ft
2020/07/05 04:53 KSJC 050453Z 32004KT 10SM FEW006 21/09 A3000 RMK AO2 SLP158 FU FEW006 T02060089
KDVO - Novato/Gnoss Fld, California, USA
Distance from station: NW 34mi, 54km
Updated: Sat, 04-Jul-2020 9:35pm PDT
Clear
Clear
 Wind from varies
Wind: varies 3 mph , 6 km/h
Temperature: 72°F , 22°C
Dew Point: 43°F , 6°C
Humidity: 36%
Barometer: 29.98 inHg , 1015.2 hPa
Clouds: Clear
Visibility: 10 miles , 16 km
2020/07/05 04:35 KDVO 050435Z AUTO VRB03KT 10SM CLR 22/06 A2998 RMK AO2
 
KRHV - San Jose/Reid, California, USA
Distance from station: SSE 37mi, 59km
Updated: Sat, 04-Jul-2020 9:47pm PDT
Clear
Clear
 Wind from WNW
Wind: WNW 5 mph , 7 km/h
Temperature: 72°F , 22°C
Dew Point: 45°F , 7°C
Humidity: 38%
Barometer: 30.00 inHg , 1015.9 hPa
Clouds: Clear
Visibility: 10 miles , 16 km
2020/07/05 04:47 KRHV 050447Z 29004KT 10SM SKC 22/07 A3000 RMK LAST
KSUU - Travis Afb/Fairf, California, USA
Distance from station: NNE 37mi, 59km
Updated: Sat, 04-Jul-2020 8:58pm PDT
Clear
Clear
 Wind from SSW
Wind: SSW 14 mph , 22 km/h
Temperature: 77°F , 25°C
Dew Point: 46°F , 8°C
Humidity: 34%
Barometer: 29.92 inHg , 1013.2 hPa
Clouds: Clear
Visibility: 10 miles , 16 km
2020/07/05 03:58 KSUU 050358Z AUTO 20012KT 10SM CLR 25/08 A2992 RMK AO2 SLP138 T02490075 $
KO69 - Petaluma, California, USA
Distance from station: NW 41mi, 66km
Updated: Sat, 04-Jul-2020 9:35pm PDT
Haze, Clear
Haze, Clear
 Wind from calm
Wind: Calm
Temperature: 64°F , 18°C
Dew Point: 48°F , 9°C
Humidity: 56%
Barometer: 30.00 inHg , 1015.9 hPa
Summary: Haze
Clouds: Clear
Visibility: 6 miles , 10 km
2020/07/05 04:35 KO69 050435Z AUTO 00000KT 6SM HZ CLR 18/09 A3000 RMK A01
 
KVCB - Vacaville, California, USA
Distance from station: NNE 44mi, 71km
Updated: Sat, 04-Jul-2020 9:53pm PDT
Clear
Clear
 Wind from W
Wind: W 5 mph , 7 km/h
Temperature: 82°F , 28°C
Dew Point: 39°F , 4°C
Humidity: 21%
Barometer: 29.93 inHg , 1013.5 hPa
Clouds: Clear
Visibility: 10 miles , 16 km
2020/07/05 04:53 KVCB 050453Z AUTO 26004KT 10SM CLR 28/04 A2993 RMK AO2 SLP134 T02830044